Time;durP1;ratioP1;P1;durP2;ratioP2;P2;SDS_P1;SDS_P2;PMS_P1;PMS_P2;Temp;Humidity;BMP_temperature;BMP_pressure;BME280_temperature;BME280_humidity;BME280_pressure;Samples;Min_cycle;Max_cycle;Signal;HPM_P1;HPM_P2
2023/11/20 00:02:16;;;;;;;22.30;16.23;;;;;;;;;;5102480;28;20262;-62
2023/11/20 00:04:44;;;;;;;24.37;15.73;;;;;;;;;;5104645;28;20205;-62
2023/11/20 00:07:12;;;;;;;24.13;16.53;;;;;;;;;;5113487;27;20209;-62
2023/11/20 00:09:41;;;;;;;24.97;15.47;;;;;;;;;;5117451;28;20253;-62
2023/11/20 00:12:09;;;;;;;34.40;21.97;;;;;;;;;;5119411;28;20228;-62
2023/11/20 00:14:38;;;;;;;25.77;16.27;;;;;;;;;;5100334;28;20220;-62
2023/11/20 00:17:06;;;;;;;23.53;15.47;;;;;;;;;;5111427;28;20216;-62
2023/11/20 00:19:35;;;;;;;23.47;14.97;;;;;;;;;;5099285;28;20227;-62
2023/11/20 00:22:04;;;;;;;22.27;15.60;;;;;;;;;;5098838;28;20226;-62
2023/11/20 00:24:32;;;;;;;22.13;15.07;;;;;;;;;;5099126;28;20289;-62
2023/11/20 00:27:00;;;;;;;23.60;14.93;;;;;;;;;;5108446;28;20208;-63
2023/11/20 00:29:28;;;;;;;20.30;14.63;;;;;;;;;;5098294;28;20534;-63
2023/11/20 00:31:56;;;;;;;23.57;14.90;;;;;;;;;;5111132;28;20248;-62
2023/11/20 00:34:24;;;;;;;21.67;15.27;;;;;;;;;;5117662;28;20201;-63
2023/11/20 00:36:54;;;;;;;22.67;14.87;;;;;;;;;;5113936;28;20263;-62
2023/11/20 00:39:22;;;;;;;24.67;15.23;;;;;;;;;;5107069;28;20717;-62
2023/11/20 00:41:50;;;;;;;24.53;15.40;;;;;;;;;;5114424;28;20221;-63
2023/11/20 00:44:18;;;;;;;23.20;15.53;;;;;;;;;;5114158;28;20201;-63
2023/11/20 00:46:46;;;;;;;26.93;17.03;;;;;;;;;;5114260;28;20270;-62
2023/11/20 00:49:14;;;;;;;33.97;20.33;;;;;;;;;;5112904;28;20606;-62
2023/11/20 00:51:42;;;;;;;32.47;22.00;;;;;;;;;;5114391;28;20241;-62
2023/11/20 00:54:12;;;;;;;31.67;21.03;;;;;;;;;;5098499;28;20225;-63
2023/11/20 00:56:40;;;;;;;30.80;20.07;;;;;;;;;;5099359;28;20713;-62
2023/11/20 00:59:08;;;;;;;32.60;20.13;;;;;;;;;;5099965;28;20240;-62
2023/11/20 01:01:37;;;;;;;30.30;19.30;;;;;;;;;;5097796;28;20228;-63
2023/11/20 01:07:36;;;;;;;27.17;19.77;;;;;;;;;;5097812;28;20199;-62
2023/11/20 01:13:50;;;;;;;;;;;;;;;;;;;;;
2023/11/20 01:16:52;;;;;;;26.33;17.90;;;;;;;;;;5089733;28;20240;-63
2023/11/20 01:19:20;;;;;;;31.87;20.27;;;;;;;;;;5100895;28;20605;-62
2023/11/20 01:21:48;;;;;;;28.27;19.23;;;;;;;;;;5115091;28;20213;-62
2023/11/20 01:24:16;;;;;;;23.27;18.07;;;;;;;;;;5118456;28;20287;-62
2023/11/20 01:30:14;;;;;;;25.67;17.07;;;;;;;;;;5106686;28;20315;-63
2023/11/20 01:32:42;;;;;;;24.20;16.73;;;;;;;;;;5111798;28;20224;-62
2023/11/20 01:35:10;;;;;;;27.37;17.67;;;;;;;;;;5118430;28;20208;-62
2023/11/20 01:37:38;;;;;;;27.53;16.83;;;;;;;;;;5117093;28;20660;-62
2023/11/20 01:40:08;;;;;;;23.23;16.73;;;;;;;;;;5099773;28;21527;-63
2023/11/20 01:42:36;;;;;;;25.23;16.60;;;;;;;;;;5109698;28;20221;-62
2023/11/20 01:45:07;;;;;;;23.53;16.17;;;;;;;;;;5106348;28;20209;-63
2023/11/20 01:47:36;;;;;;;24.33;17.07;;;;;;;;;;5120892;28;20196;-62
2023/11/20 01:50:39;;;;;;;23.33;16.60;;;;;;;;;;5111464;27;20200;-62
2023/11/20 01:53:09;;;;;;;19.30;14.67;;;;;;;;;;5111565;28;20266;-62
2023/11/20 01:55:38;;;;;;;19.17;14.67;;;;;;;;;;5122405;28;20263;-62
2023/11/20 01:58:06;;;;;;;20.63;14.67;;;;;;;;;;5102489;28;20202;-63
2023/11/20 02:00:34;;;;;;;23.50;14.80;;;;;;;;;;5105080;28;20208;-63
2023/11/20 02:03:04;;;;;;;19.73;14.77;;;;;;;;;;5117812;28;20227;-62
2023/11/20 02:05:34;;;;;;;23.23;14.50;;;;;;;;;;5122095;28;20549;-62
2023/11/20 02:08:02;;;;;;;20.30;15.17;;;;;;;;;;5109832;28;20201;-62
2023/11/20 02:10:30;;;;;;;21.20;14.83;;;;;;;;;;5101776;28;20250;-62
2023/11/20 02:12:59;;;;;;;21.20;14.67;;;;;;;;;;5101109;28;20274;-62
2023/11/20 02:15:27;;;;;;;19.87;14.57;;;;;;;;;;5109024;28;20213;-62
2023/11/20 02:17:55;;;;;;;23.33;15.73;;;;;;;;;;5103690;28;20209;-62
2023/11/20 02:20:25;;;;;;;22.47;15.67;;;;;;;;;;5101674;28;20206;-62
2023/11/20 02:22:52;;;;;;;23.90;16.70;;;;;;;;;;5121368;28;20221;-62
2023/11/20 02:25:21;;;;;;;21.17;14.80;;;;;;;;;;5120723;28;20204;-62
2023/11/20 02:27:52;;;;;;;20.63;14.80;;;;;;;;;;5109897;28;20224;-61
2023/11/20 02:30:22;;;;;;;23.83;15.10;;;;;;;;;;5103646;28;20230;-62
2023/11/20 02:32:50;;;;;;;17.77;14.77;;;;;;;;;;5114510;28;20260;-63
2023/11/20 02:35:18;;;;;;;21.17;14.93;;;;;;;;;;5103033;28;20251;-62
2023/11/20 02:37:46;;;;;;;20.07;14.27;;;;;;;;;;5103184;28;20263;-62
2023/11/20 02:40:15;;;;;;;22.10;15.60;;;;;;;;;;5101051;28;20289;-62
2023/11/20 02:42:43;;;;;;;19.00;15.53;;;;;;;;;;5117232;28;20221;-63
2023/11/20 02:45:12;;;;;;;19.57;13.90;;;;;;;;;;5103824;28;20566;-62
2023/11/20 02:47:42;;;;;;;20.57;14.40;;;;;;;;;;5100204;28;20201;-62
2023/11/20 02:50:10;;;;;;;21.23;15.23;;;;;;;;;;5109960;28;20201;-63
2023/11/20 02:52:38;;;;;;;19.23;14.77;;;;;;;;;;5119331;28;20268;-62
2023/11/20 02:55:06;;;;;;;20.93;13.70;;;;;;;;;;5110699;28;20307;-63
2023/11/20 02:57:35;;;;;;;22.30;14.80;;;;;;;;;;5109103;28;20224;-62
2023/11/20 03:00:06;;;;;;;18.70;14.00;;;;;;;;;;5100671;28;20229;-62
2023/11/20 03:02:35;;;;;;;15.70;13.30;;;;;;;;;;5104167;28;20221;-62
2023/11/20 03:05:10;;;;;;;21.60;14.17;;;;;;;;;;5099990;28;20610;-62
2023/11/20 03:07:38;;;;;;;21.70;13.47;;;;;;;;;;5100203;28;20231;-62
2023/11/20 03:10:06;;;;;;;22.53;14.70;;;;;;;;;;5100533;28;20241;-61
2023/11/20 03:12:36;;;;;;;22.07;14.33;;;;;;;;;;5099725;28;20256;-62
2023/11/20 03:15:05;;;;;;;24.70;13.33;;;;;;;;;;5115685;28;20232;-62
2023/11/20 03:17:33;;;;;;;20.83;13.40;;;;;;;;;;5100377;28;20549;-62
2023/11/20 03:20:02;;;;;;;22.87;13.43;;;;;;;;;;5100417;28;20201;-62
2023/11/20 03:22:31;;;;;;;20.97;13.40;;;;;;;;;;5103273;28;20259;-62
2023/11/20 03:24:59;;;;;;;19.27;12.20;;;;;;;;;;5115917;28;20255;-62
2023/11/20 03:27:27;;;;;;;21.70;12.47;;;;;;;;;;5102012;28;20202;-63
2023/11/20 03:29:55;;;;;;;18.20;11.63;;;;;;;;;;5099952;28;20225;-62
2023/11/20 03:32:23;;;;;;;16.87;10.93;;;;;;;;;;5108036;28;20253;-62
2023/11/20 03:34:51;;;;;;;15.30;10.67;;;;;;;;;;5112300;28;20246;-63
2023/11/20 03:37:19;;;;;;;14.80;10.27;;;;;;;;;;5119585;28;20279;-62
2023/11/20 03:39:48;;;;;;;16.10;10.83;;;;;;;;;;5120208;28;20236;-63
2023/11/20 03:42:16;;;;;;;17.80;10.60;;;;;;;;;;5116863;28;20699;-62
2023/11/20 03:44:44;;;;;;;22.80;10.60;;;;;;;;;;5120304;28;20597;-62
2023/11/20 03:47:15;;;;;;;24.00;11.37;;;;;;;;;;5117444;28;20263;-62
2023/11/20 03:49:43;;;;;;;13.80;10.50;;;;;;;;;;5099817;28;20265;-62
2023/11/20 03:52:10;;;;;;;16.57;10.60;;;;;;;;;;5098460;28;20237;-63
2023/11/20 03:54:38;;;;;;;18.83;10.53;;;;;;;;;;5111138;28;20253;-63
2023/11/20 03:57:08;;;;;;;19.00;11.17;;;;;;;;;;5119095;28;20575;-62
2023/11/20 03:59:35;;;;;;;14.53;10.70;;;;;;;;;;5108655;28;20200;-63
2023/11/20 04:02:06;;;;;;;17.73;11.33;;;;;;;;;;5099164;28;20228;-62
2023/11/20 04:04:37;;;;;;;25.90;12.03;;;;;;;;;;5099305;28;20251;-62
2023/11/20 04:07:05;;;;;;;16.23;10.07;;;;;;;;;;5101647;28;20660;-62
2023/11/20 04:09:33;;;;;;;17.97;10.53;;;;;;;;;;5098496;28;20209;-62
2023/11/20 04:12:02;;;;;;;17.10;10.73;;;;;;;;;;5099489;28;20233;-62
2023/11/20 04:14:31;;;;;;;15.93;10.60;;;;;;;;;;5099002;28;20251;-62
2023/11/20 04:16:59;;;;;;;23.83;10.30;;;;;;;;;;5099429;28;20224;-62
2023/11/20 04:19:27;;;;;;;18.63;9.97;;;;;;;;;;5099427;28;20201;-62
2023/11/20 04:21:56;;;;;;;20.33;10.83;;;;;;;;;;5111055;28;20297;-62
2023/11/20 04:24:24;;;;;;;16.87;10.40;;;;;;;;;;5111136;28;20198;-62
2023/11/20 04:26:52;;;;;;;18.47;10.93;;;;;;;;;;5098818;28;20617;-62
2023/11/20 04:29:20;;;;;;;27.70;10.73;;;;;;;;;;5097525;28;20736;-63
2023/11/20 04:31:49;;;;;;;18.07;10.83;;;;;;;;;;5116317;28;20308;-62
2023/11/20 04:34:17;;;;;;;19.13;11.03;;;;;;;;;;5119068;28;20590;-62
2023/11/20 04:36:45;;;;;;;16.77;10.53;;;;;;;;;;5118329;28;20228;-62
2023/11/20 04:39:14;;;;;;;15.60;10.10;;;;;;;;;;5105935;28;20193;-63
2023/11/20 04:41:41;;;;;;;15.73;11.20;;;;;;;;;;5118043;28;20256;-62
2023/11/20 04:44:09;;;;;;;15.00;10.57;;;;;;;;;;5117869;28;20233;-63
2023/11/20 04:46:37;;;;;;;31.73;11.63;;;;;;;;;;5117898;28;20680;-62
2023/11/20 04:49:07;;;;;;;26.70;11.40;;;;;;;;;;5104618;28;20198;-62
2023/11/20 04:51:35;;;;;;;26.13;11.40;;;;;;;;;;5100903;28;20223;-62
2023/11/20 04:54:03;;;;;;;18.17;10.67;;;;;;;;;;5118980;28;20212;-63
2023/11/20 04:56:32;;;;;;;32.67;11.13;;;;;;;;;;5115243;28;20229;-62
2023/11/20 04:59:00;;;;;;;17.03;10.80;;;;;;;;;;5110064;28;20240;-63
2023/11/20 05:01:32;;;;;;;33.90;11.83;;;;;;;;;;5108503;28;20252;-62
2023/11/20 05:04:07;;;;;;;23.27;11.37;;;;;;;;;;5118145;28;20240;-62
2023/11/20 05:06:35;;;;;;;29.17;11.10;;;;;;;;;;5098440;28;20284;-62
2023/11/20 05:09:04;;;;;;;19.93;11.80;;;;;;;;;;5098180;28;20205;-62
2023/11/20 05:11:31;;;;;;;20.13;11.20;;;;;;;;;;5097329;28;20221;-62
2023/11/20 05:14:00;;;;;;;28.03;11.40;;;;;;;;;;5098182;28;20209;-62
2023/11/20 05:16:28;;;;;;;16.60;10.80;;;;;;;;;;5109657;28;20229;-62
2023/11/20 05:18:56;;;;;;;17.70;10.53;;;;;;;;;;5117084;28;20201;-62
2023/11/20 05:21:26;;;;;;;17.43;11.43;;;;;;;;;;5097576;28;20225;-62
2023/11/20 05:23:54;;;;;;;19.23;11.67;;;;;;;;;;5111737;28;20266;-62
2023/11/20 05:26:23;;;;;;;15.90;11.73;;;;;;;;;;5115212;28;20228;-62
2023/11/20 05:28:54;;;;;;;18.67;11.00;;;;;;;;;;5098856;28;20201;-62
2023/11/20 05:31:23;;;;;;;17.70;11.60;;;;;;;;;;5103146;28;20217;-62
2023/11/20 05:33:51;;;;;;;17.90;11.20;;;;;;;;;;5097984;28;20211;-62
2023/11/20 05:36:19;;;;;;;24.30;11.50;;;;;;;;;;5098225;28;20221;-62
2023/11/20 05:38:48;;;;;;;23.00;10.93;;;;;;;;;;5097691;28;20615;-62
2023/11/20 05:41:16;;;;;;;18.63;11.17;;;;;;;;;;5103239;28;20258;-62
2023/11/20 05:43:44;;;;;;;15.77;10.83;;;;;;;;;;5100048;28;20573;-63
2023/11/20 05:46:13;;;;;;;18.00;10.90;;;;;;;;;;5097415;28;20248;-62
2023/11/20 05:48:41;;;;;;;17.17;11.17;;;;;;;;;;5097976;28;20575;-62
2023/11/20 05:51:09;;;;;;;27.13;11.63;;;;;;;;;;5097832;28;20222;-62
2023/11/20 05:53:40;;;;;;;26.83;10.43;;;;;;;;;;5098527;28;20241;-62
2023/11/20 05:56:12;;;;;;;17.63;10.43;;;;;;;;;;5097469;28;20235;-62
2023/11/20 05:58:41;;;;;;;20.00;10.57;;;;;;;;;;5097780;28;20220;-62
2023/11/20 06:01:09;;;;;;;16.10;11.03;;;;;;;;;;5101018;28;20220;-62
2023/11/20 06:03:37;;;;;;;17.20;9.87;;;;;;;;;;5097213;28;20201;-62
2023/11/20 06:06:05;;;;;;;16.00;10.33;;;;;;;;;;5111915;28;20246;-62
2023/11/20 06:08:34;;;;;;;15.20;9.90;;;;;;;;;;5101318;28;20255;-62
2023/11/20 06:11:20;;;;;;;26.07;10.60;;;;;;;;;;5097682;28;20205;-62
2023/11/20 06:13:49;;;;;;;16.07;9.13;;;;;;;;;;5135084;28;20253;-62
2023/11/20 06:16:17;;;;;;;16.97;9.60;;;;;;;;;;5112314;27;20225;-64
2023/11/20 06:18:45;;;;;;;13.10;9.73;;;;;;;;;;5097580;28;20207;-66
2023/11/20 06:21:13;;;;;;;17.20;9.73;;;;;;;;;;5102905;28;20249;-66
2023/11/20 06:24:06;;;;;;;17.97;9.87;;;;;;;;;;5105983;28;20201;-66
2023/11/20 06:26:35;;;;;;;14.60;9.83;;;;;;;;;;5127684;28;20199;-66
2023/11/20 06:29:03;;;;;;;15.37;9.83;;;;;;;;;;5126022;28;20200;-66
2023/11/20 06:35:07;;;;;;;24.27;9.13;;;;;;;;;;5102732;28;20204;-66
2023/11/20 06:37:35;;;;;;;13.97;8.67;;;;;;;;;;5116054;28;20194;-66
2023/11/20 06:40:06;;;;;;;13.17;8.80;;;;;;;;;;5101171;28;20209;-66
2023/11/20 06:42:35;;;;;;;10.37;9.03;;;;;;;;;;5106596;28;20598;-66
2023/11/20 06:45:05;;;;;;;11.83;8.57;;;;;;;;;;5100347;28;20229;-66
2023/11/20 06:47:33;;;;;;;10.73;8.20;;;;;;;;;;5100411;28;20206;-66
2023/11/20 06:50:03;;;;;;;15.87;7.97;;;;;;;;;;5100456;28;20236;-66
2023/11/20 06:55:53;;;;;;;11.37;8.43;;;;;;;;;;5123550;27;20272;-64
2023/11/20 06:58:23;;;;;;;10.83;7.70;;;;;;;;;;5119490;27;20205;-66
2023/11/20 07:00:51;;;;;;;11.83;8.47;;;;;;;;;;5118565;27;20714;-66
2023/11/20 07:03:19;;;;;;;11.53;7.47;;;;;;;;;;5100065;28;20297;-65
2023/11/20 07:09:25;;;;;;;10.70;7.97;;;;;;;;;;5099959;28;20185;-66
2023/11/20 07:12:05;;;;;;;11.40;7.97;;;;;;;;;;5099558;28;20217;-66
2023/11/20 07:14:35;;;;;;;10.40;6.80;;;;;;;;;;5099992;28;20205;-64
2023/11/20 07:17:06;;;;;;;11.10;7.60;;;;;;;;;;5102054;28;20249;-64
2023/11/20 07:19:35;;;;;;;11.67;7.20;;;;;;;;;;5106375;28;20196;-64
2023/11/20 07:22:03;;;;;;;12.37;7.63;;;;;;;;;;5099831;28;20247;-64
2023/11/20 07:24:31;;;;;;;11.10;7.47;;;;;;;;;;5100411;28;20210;-64
2023/11/20 07:26:59;;;;;;;12.33;7.47;;;;;;;;;;5099255;28;20247;-64
2023/11/20 07:29:28;;;;;;;10.13;6.80;;;;;;;;;;5105213;28;20239;-64
2023/11/20 07:31:58;;;;;;;13.50;7.77;;;;;;;;;;5113262;28;20213;-64
2023/11/20 07:34:26;;;;;;;9.57;7.13;;;;;;;;;;5122237;27;20349;-64
2023/11/20 07:36:55;;;;;;;9.40;7.07;;;;;;;;;;5102195;28;20680;-64
2023/11/20 07:39:24;;;;;;;11.53;7.07;;;;;;;;;;5099657;28;20236;-64
2023/11/20 07:41:52;;;;;;;12.97;7.37;;;;;;;;;;5100466;28;20221;-64
2023/11/20 07:44:23;;;;;;;12.63;7.27;;;;;;;;;;5098244;28;20201;-64
2023/11/20 07:47:01;;;;;;;14.07;7.50;;;;;;;;;;5099166;28;20205;-64
2023/11/20 07:49:32;;;;;;;16.10;8.43;;;;;;;;;;5099055;28;20687;-64
2023/11/20 07:52:00;;;;;;;11.07;7.57;;;;;;;;;;5099193;28;20285;-64
2023/11/20 07:54:28;;;;;;;18.77;8.57;;;;;;;;;;5099046;28;20233;-64
2023/11/20 07:56:56;;;;;;;12.17;7.70;;;;;;;;;;5099196;28;20243;-64
2023/11/20 07:59:24;;;;;;;12.47;7.67;;;;;;;;;;5099065;28;20209;-64
2023/11/20 08:01:52;;;;;;;11.67;7.50;;;;;;;;;;5101999;28;20225;-64
2023/11/20 08:04:22;;;;;;;13.90;7.97;;;;;;;;;;5103187;28;20258;-64
2023/11/20 08:06:50;;;;;;;12.13;7.97;;;;;;;;;;5104997;27;20661;-63
2023/11/20 08:12:41;;;;;;;13.37;8.17;;;;;;;;;;5109075;27;20248;-63
2023/11/20 08:15:45;;;;;;;15.00;9.47;;;;;;;;;;5112193;27;20200;-63
2023/11/20 08:18:13;;;;;;;13.77;8.20;;;;;;;;;;5115613;28;20207;-63
2023/11/20 08:20:46;;;;;;;16.93;9.10;;;;;;;;;;5110030;28;20711;-63
2023/11/20 08:23:23;;;;;;;16.63;9.33;;;;;;;;;;5115233;28;20204;-64
2023/11/20 08:25:51;;;;;;;14.63;8.77;;;;;;;;;;5108328;28;20205;-64
2023/11/20 08:28:19;;;;;;;15.13;10.20;;;;;;;;;;5097560;28;20201;-64
2023/11/20 08:30:47;;;;;;;14.27;9.20;;;;;;;;;;5100739;28;20239;-63
2023/11/20 08:33:17;;;;;;;20.27;10.93;;;;;;;;;;5105252;28;20283;-64
2023/11/20 08:35:48;;;;;;;18.70;10.60;;;;;;;;;;5092049;28;20649;-63
2023/11/20 08:38:16;;;;;;;17.50;11.17;;;;;;;;;;5094672;27;20301;-63
2023/11/20 08:40:46;;;;;;;17.63;9.83;;;;;;;;;;5093120;28;20251;-63
2023/11/20 08:43:14;;;;;;;16.87;9.77;;;;;;;;;;5095252;28;20264;-64
2023/11/20 08:45:42;;;;;;;19.33;11.33;;;;;;;;;;5095202;27;20649;-64
2023/11/20 08:48:10;;;;;;;26.67;10.50;;;;;;;;;;5092370;28;20205;-64
2023/11/20 08:50:38;;;;;;;25.40;11.97;;;;;;;;;;5094503;27;20288;-63
2023/11/20 08:53:07;;;;;;;18.80;11.10;;;;;;;;;;5094685;28;20688;-63
2023/11/20 08:55:36;;;;;;;17.60;10.60;;;;;;;;;;5091885;28;20588;-63
2023/11/20 08:58:04;;;;;;;21.13;11.63;;;;;;;;;;5099927;28;20322;-63
2023/11/20 09:00:32;;;;;;;23.73;11.90;;;;;;;;;;5101398;27;20300;-63
2023/11/20 09:03:00;;;;;;;23.23;12.03;;;;;;;;;;5110106;27;20233;-63
2023/11/20 09:05:28;;;;;;;19.90;11.73;;;;;;;;;;5116433;28;20232;-63
2023/11/20 09:07:56;;;;;;;23.93;13.33;;;;;;;;;;5102425;28;20193;-63
2023/11/20 09:10:27;;;;;;;20.90;12.70;;;;;;;;;;5108192;28;20200;-63
2023/11/20 09:12:55;;;;;;;25.97;12.50;;;;;;;;;;5090699;28;20217;-63
2023/11/20 09:15:24;;;;;;;18.53;12.23;;;;;;;;;;5091814;28;20201;-63
2023/11/20 09:17:52;;;;;;;21.63;12.20;;;;;;;;;;5092184;28;20719;-63
2023/11/20 09:20:23;;;;;;;18.90;11.97;;;;;;;;;;5093792;28;20328;-63
2023/11/20 09:22:51;;;;;;;18.33;12.00;;;;;;;;;;5093981;28;20299;-63
2023/11/20 09:25:19;;;;;;;18.67;11.93;;;;;;;;;;5095671;28;20201;-64
2023/11/20 09:27:48;;;;;;;19.77;12.73;;;;;;;;;;5091641;28;20652;-64
2023/11/20 09:30:16;;;;;;;18.77;11.83;;;;;;;;;;5093488;28;20202;-63
2023/11/20 09:32:44;;;;;;;18.10;10.90;;;;;;;;;;5093770;27;20245;-64
2023/11/20 09:35:14;;;;;;;20.87;11.37;;;;;;;;;;5092710;28;20208;-64
2023/11/20 09:37:42;;;;;;;20.00;10.87;;;;;;;;;;5097418;28;20687;-64
2023/11/20 09:40:11;;;;;;;23.60;11.47;;;;;;;;;;5097999;28;20619;-64
2023/11/20 09:42:43;;;;;;;16.40;11.30;;;;;;;;;;5100111;28;20252;-64
2023/11/20 09:45:25;;;;;;;20.77;11.93;;;;;;;;;;5097483;28;20292;-63
2023/11/20 09:47:54;;;;;;;21.50;11.53;;;;;;;;;;5109834;28;20271;-63
2023/11/20 09:50:22;;;;;;;19.70;11.30;;;;;;;;;;5110689;27;20244;-64
2023/11/20 09:52:51;;;;;;;17.73;11.70;;;;;;;;;;5115216;28;20311;-63
2023/11/20 09:55:19;;;;;;;18.40;11.73;;;;;;;;;;5102248;28;20588;-64
2023/11/20 09:57:49;;;;;;;23.17;12.27;;;;;;;;;;5114318;28;20213;-64
2023/11/20 10:00:18;;;;;;;21.73;12.33;;;;;;;;;;5101677;28;20235;-64
2023/11/20 10:02:48;;;;;;;19.30;11.70;;;;;;;;;;5094971;28;20213;-64
2023/11/20 10:05:17;;;;;;;18.17;11.87;;;;;;;;;;5100930;28;20228;-64
2023/11/20 10:08:01;;;;;;;19.60;11.67;;;;;;;;;;5104688;28;20632;-64
2023/11/20 10:10:34;;;;;;;21.00;12.37;;;;;;;;;;5101628;28;20224;-64
2023/11/20 10:13:04;;;;;;;23.23;11.80;;;;;;;;;;5101278;28;20217;-64
2023/11/20 10:15:34;;;;;;;21.03;11.67;;;;;;;;;;5101600;28;20231;-64
2023/11/20 10:18:02;;;;;;;21.27;10.87;;;;;;;;;;5101220;28;20599;-64
2023/11/20 10:20:49;;;;;;;25.77;11.63;;;;;;;;;;5101256;28;20201;-64
2023/11/20 10:23:20;;;;;;;18.30;11.60;;;;;;;;;;5101547;28;20209;-64
2023/11/20 10:25:50;;;;;;;17.07;10.83;;;;;;;;;;5116646;28;20201;-64
2023/11/20 10:28:18;;;;;;;17.27;11.20;;;;;;;;;;5119145;28;20205;-64
2023/11/20 10:30:48;;;;;;;15.87;10.13;;;;;;;;;;5099863;28;20219;-64
2023/11/20 10:33:34;;;;;;;17.53;10.73;;;;;;;;;;5107364;28;20197;-63
2023/11/20 10:36:11;;;;;;;16.27;11.40;;;;;;;;;;5101230;28;20288;-63
2023/11/20 10:38:40;;;;;;;14.43;9.73;;;;;;;;;;5099877;28;20225;-63
2023/11/20 10:41:10;;;;;;;17.87;11.00;;;;;;;;;;5103716;28;20231;-63
2023/11/20 10:43:40;;;;;;;14.20;10.27;;;;;;;;;;5121293;27;20602;-64
2023/11/20 10:46:14;;;;;;;14.50;10.17;;;;;;;;;;5112573;28;20211;-64
2023/11/20 10:48:42;;;;;;;18.40;10.43;;;;;;;;;;5104262;28;20193;-63
2023/11/20 10:51:12;;;;;;;14.63;9.47;;;;;;;;;;5117337;28;20235;-63
2023/11/20 10:53:40;;;;;;;15.20;9.73;;;;;;;;;;5105702;28;20719;-64
2023/11/20 10:56:08;;;;;;;12.47;9.67;;;;;;;;;;5120127;27;20205;-64
2023/11/20 10:58:37;;;;;;;13.03;10.07;;;;;;;;;;5120680;28;20278;-64
2023/11/20 11:01:07;;;;;;;13.33;9.20;;;;;;;;;;5108332;28;20204;-63
2023/11/20 11:03:51;;;;;;;15.53;9.10;;;;;;;;;;5100859;28;20205;-63
2023/11/20 11:06:20;;;;;;;14.10;9.50;;;;;;;;;;5108177;28;20205;-63
2023/11/20 11:08:50;;;;;;;12.87;9.63;;;;;;;;;;5096971;28;20198;-63
2023/11/20 11:11:18;;;;;;;13.87;9.57;;;;;;;;;;5096842;28;20645;-63
2023/11/20 11:13:51;;;;;;;20.47;11.60;;;;;;;;;;5095214;28;20251;-63
2023/11/20 11:16:24;;;;;;;16.67;10.63;;;;;;;;;;5094038;28;20204;-63
2023/11/20 11:19:01;;;;;;;13.97;9.80;;;;;;;;;;5094122;28;20228;-64
2023/11/20 11:21:34;;;;;;;19.57;11.13;;;;;;;;;;5094351;28;20270;-64
2023/11/20 11:24:03;;;;;;;15.27;10.27;;;;;;;;;;5096712;27;20205;-64
2023/11/20 11:26:47;;;;;;;17.53;10.57;;;;;;;;;;5099894;27;20200;-63
2023/11/20 11:29:17;;;;;;;16.77;9.63;;;;;;;;;;5096057;28;20204;-64
2023/11/20 11:31:54;;;;;;;14.60;10.13;;;;;;;;;;5113410;28;20702;-64
2023/11/20 11:34:31;;;;;;;18.87;10.03;;;;;;;;;;5099374;28;20661;-64
2023/11/20 11:37:05;;;;;;;19.30;10.70;;;;;;;;;;5099733;28;20235;-64
2023/11/20 11:39:38;;;;;;;19.93;11.27;;;;;;;;;;5099287;28;20225;-63
2023/11/20 11:42:11;;;;;;;18.33;11.77;;;;;;;;;;5111346;28;20222;-63
2023/11/20 11:44:46;;;;;;;20.60;10.57;;;;;;;;;;5099257;28;20205;-62
2023/11/20 11:47:15;;;;;;;20.83;11.10;;;;;;;;;;5103421;28;20284;-63
2023/11/20 11:49:49;;;;;;;16.30;10.70;;;;;;;;;;5105485;27;20189;-63
2023/11/20 11:52:25;;;;;;;14.97;10.13;;;;;;;;;;5095692;27;20248;-62
2023/11/20 11:55:12;;;;;;;17.70;10.80;;;;;;;;;;5095376;27;20317;-64
2023/11/20 11:57:42;;;;;;;20.33;11.97;;;;;;;;;;5099750;28;20197;-64
2023/11/20 12:00:11;;;;;;;18.23;11.17;;;;;;;;;;5097778;28;20205;-63
2023/11/20 12:03:01;;;;;;;19.47;12.30;;;;;;;;;;5112249;28;20220;-63
2023/11/20 12:05:30;;;;;;;23.40;12.33;;;;;;;;;;5120131;28;20201;-63
2023/11/20 12:08:01;;;;;;;23.30;12.83;;;;;;;;;;5102861;28;20421;-62
2023/11/20 12:10:39;;;;;;;23.03;12.27;;;;;;;;;;5099272;28;20209;-63
2023/11/20 12:13:11;;;;;;;25.13;13.17;;;;;;;;;;5098850;28;20221;-62
2023/11/20 12:15:40;;;;;;;19.53;12.80;;;;;;;;;;5098269;28;20217;-63
2023/11/20 12:18:10;;;;;;;21.63;11.43;;;;;;;;;;5098822;28;20249;-62
2023/11/20 12:20:42;;;;;;;20.57;12.13;;;;;;;;;;5099549;28;20211;-63
2023/11/20 12:23:20;;;;;;;23.30;13.00;;;;;;;;;;5099331;28;20229;-63
2023/11/20 12:25:48;;;;;;;23.77;12.67;;;;;;;;;;5106302;28;20236;-63
2023/11/20 12:28:16;;;;;;;20.77;11.67;;;;;;;;;;5102518;28;20284;-62
2023/11/20 12:30:45;;;;;;;28.87;12.10;;;;;;;;;;5111197;28;20193;-63
2023/11/20 12:33:13;;;;;;;23.60;11.93;;;;;;;;;;5098745;28;20201;-63
2023/11/20 12:35:43;;;;;;;19.23;11.57;;;;;;;;;;5098554;28;20201;-63
2023/11/20 12:38:14;;;;;;;19.60;10.37;;;;;;;;;;5098946;28;20219;-63
2023/11/20 12:40:48;;;;;;;19.23;10.57;;;;;;;;;;5098582;28;20568;-62
2023/11/20 12:43:19;;;;;;;17.17;8.83;;;;;;;;;;5114708;28;20671;-62
2023/11/20 12:45:47;;;;;;;15.63;9.60;;;;;;;;;;5106946;28;20201;-63
2023/11/20 12:48:16;;;;;;;17.13;8.77;;;;;;;;;;5098099;28;20205;-62
2023/11/20 12:50:49;;;;;;;15.17;8.07;;;;;;;;;;5098357;28;20220;-63
2023/11/20 12:53:18;;;;;;;16.03;8.43;;;;;;;;;;5098807;28;20205;-63
2023/11/20 12:55:46;;;;;;;13.67;7.53;;;;;;;;;;5097972;28;20205;-62
2023/11/20 12:58:15;;;;;;;13.93;6.90;;;;;;;;;;5098187;28;20569;-62
2023/11/20 13:00:43;;;;;;;12.63;6.93;;;;;;;;;;5097515;28;20676;-63
2023/11/20 13:03:13;;;;;;;13.10;6.87;;;;;;;;;;5097939;28;20258;-63
2023/11/20 13:05:44;;;;;;;12.20;6.70;;;;;;;;;;5104246;28;20211;-63
2023/11/20 13:08:15;;;;;;;12.20;5.90;;;;;;;;;;5107392;28;20645;-63
2023/11/20 13:10:44;;;;;;;13.33;6.07;;;;;;;;;;5097840;28;20551;-63
2023/11/20 13:13:13;;;;;;;14.57;7.33;;;;;;;;;;5099289;28;20201;-63
2023/11/20 13:15:41;;;;;;;16.63;7.37;;;;;;;;;;5113800;28;20205;-62
2023/11/20 13:18:09;;;;;;;14.47;7.50;;;;;;;;;;5097596;28;20259;-63
2023/11/20 13:20:40;;;;;;;12.50;7.77;;;;;;;;;;5098052;28;20244;-62
2023/11/20 13:23:20;;;;;;;10.30;6.23;;;;;;;;;;5098398;28;20278;-64
2023/11/20 13:25:49;;;;;;;12.63;5.90;;;;;;;;;;5108017;28;20205;-63
2023/11/20 13:28:18;;;;;;;10.37;6.67;;;;;;;;;;5100762;28;20205;-63
2023/11/20 13:30:56;;;;;;;14.73;8.00;;;;;;;;;;5116235;28;20197;-63
2023/11/20 13:33:24;;;;;;;10.40;7.00;;;;;;;;;;5101433;28;20197;-63
2023/11/20 13:35:52;;;;;;;10.90;6.97;;;;;;;;;;5100083;28;20205;-63
2023/11/20 13:38:22;;;;;;;13.10;7.60;;;;;;;;;;5118469;28;20362;-63
2023/11/20 13:40:50;;;;;;;11.20;7.43;;;;;;;;;;5117323;28;20225;-62
2023/11/20 13:43:18;;;;;;;12.47;8.37;;;;;;;;;;5118180;28;20216;-63
2023/11/20 13:45:47;;;;;;;13.00;8.60;;;;;;;;;;5107501;28;20200;-62
2023/11/20 13:48:15;;;;;;;14.03;8.63;;;;;;;;;;5101341;28;20207;-63
2023/11/20 13:50:44;;;;;;;14.73;8.53;;;;;;;;;;5116980;28;20205;-62
2023/11/20 13:53:13;;;;;;;12.70;8.57;;;;;;;;;;5118298;28;20215;-62
2023/11/20 13:55:46;;;;;;;13.43;8.40;;;;;;;;;;5117100;28;20237;-63
2023/11/20 13:58:15;;;;;;;19.77;9.67;;;;;;;;;;5097759;28;20205;-62
2023/11/20 14:00:43;;;;;;;12.90;9.10;;;;;;;;;;5100985;28;20279;-62
2023/11/20 14:03:15;;;;;;;11.60;7.97;;;;;;;;;;5117716;28;20208;-62
2023/11/20 14:05:45;;;;;;;11.67;7.20;;;;;;;;;;5116916;28;20205;-63
2023/11/20 14:08:13;;;;;;;17.87;9.07;;;;;;;;;;5097002;28;20240;-62
2023/11/20 14:10:41;;;;;;;16.37;9.17;;;;;;;;;;5097713;28;20599;-63
2023/11/20 14:13:11;;;;;;;13.13;8.80;;;;;;;;;;5097402;28;20233;-62
2023/11/20 14:15:40;;;;;;;11.33;7.40;;;;;;;;;;5097795;28;20250;-62
2023/11/20 14:18:09;;;;;;;13.40;8.47;;;;;;;;;;5097498;28;20588;-62
2023/11/20 14:20:37;;;;;;;10.60;8.03;;;;;;;;;;5098183;28;20282;-63
2023/11/20 14:23:05;;;;;;;11.90;7.73;;;;;;;;;;5097550;28;20230;-63
2023/11/20 14:25:34;;;;;;;15.57;9.13;;;;;;;;;;5105839;28;20237;-63
2023/11/20 14:28:03;;;;;;;17.40;8.27;;;;;;;;;;5110345;28;20228;-62
2023/11/20 14:30:33;;;;;;;14.63;8.40;;;;;;;;;;5112943;28;20198;-63
2023/11/20 14:33:03;;;;;;;15.83;8.27;;;;;;;;;;5105497;28;20217;-63
2023/11/20 14:35:32;;;;;;;13.27;7.93;;;;;;;;;;5116501;28;20233;-63
2023/11/20 14:38:00;;;;;;;14.00;7.93;;;;;;;;;;5113296;28;20197;-63
2023/11/20 14:40:29;;;;;;;16.70;8.07;;;;;;;;;;5097424;28;20237;-63
2023/11/20 14:42:57;;;;;;;14.13;8.67;;;;;;;;;;5112766;28;20315;-63
2023/11/20 14:45:25;;;;;;;11.40;6.50;;;;;;;;;;5097469;28;20201;-63
2023/11/20 14:47:55;;;;;;;11.33;6.50;;;;;;;;;;5115408;28;20201;-63
2023/11/20 14:50:23;;;;;;;7.43;5.40;;;;;;;;;;5115463;28;20574;-63
2023/11/20 14:52:53;;;;;;;10.17;5.67;;;;;;;;;;5109034;28;20259;-63
2023/11/20 14:55:21;;;;;;;8.13;5.50;;;;;;;;;;5112915;27;20700;-63
2023/11/20 14:57:50;;;;;;;11.13;6.23;;;;;;;;;;5100161;28;20210;-63
2023/11/20 15:00:18;;;;;;;12.10;6.10;;;;;;;;;;5100961;28;20225;-63
2023/11/20 15:02:49;;;;;;;9.90;6.23;;;;;;;;;;5103516;28;20304;-63
2023/11/20 15:05:20;;;;;;;9.27;6.13;;;;;;;;;;5101465;28;20212;-63